sensor_id;sensor_type;location;lat;lon;timestamp;P1;durP1;ratioP1;P2;durP2;ratioP2
64875;SDS011;51369;49.862;9.908;2023-07-20T00:01:19;8.73;;;3.88;;
64875;SDS011;51369;49.862;9.908;2023-07-20T00:03:45;7.30;;;3.90;;
64875;SDS011;51369;49.862;9.908;2023-07-20T00:06:19;10.25;;;4.15;;
64875;SDS011;51369;49.862;9.908;2023-07-20T00:08:50;8.32;;;3.70;;
64875;SDS011;51369;49.862;9.908;2023-07-20T00:11:15;25.15;;;5.25;;
64875;SDS011;51369;49.862;9.908;2023-07-20T00:13:41;5.93;;;3.95;;
64875;SDS011;51369;49.862;9.908;2023-07-20T00:16:06;6.68;;;3.28;;
64875;SDS011;51369;49.862;9.908;2023-07-20T00:18:32;10.00;;;4.38;;
64875;SDS011;51369;49.862;9.908;2023-07-20T00:20:57;8.90;;;3.40;;
64875;SDS011;51369;49.862;9.908;2023-07-20T00:23:25;6.38;;;3.95;;
64875;SDS011;51369;49.862;9.908;2023-07-20T00:25:51;4.07;;;3.40;;
64875;SDS011;51369;49.862;9.908;2023-07-20T00:28:17;5.15;;;3.58;;
64875;SDS011;51369;49.862;9.908;2023-07-20T00:30:42;5.57;;;3.40;;
64875;SDS011;51369;49.862;9.908;2023-07-20T00:33:10;6.15;;;3.42;;
64875;SDS011;51369;49.862;9.908;2023-07-20T00:35:36;7.68;;;3.63;;
64875;SDS011;51369;49.862;9.908;2023-07-20T00:38:03;9.93;;;4.05;;
64875;SDS011;51369;49.862;9.908;2023-07-20T00:40:28;8.40;;;3.60;;
64875;SDS011;51369;49.862;9.908;2023-07-20T00:42:55;5.25;;;3.38;;
64875;SDS011;51369;49.862;9.908;2023-07-20T00:45:22;8.68;;;3.92;;
64875;SDS011;51369;49.862;9.908;2023-07-20T00:47:50;6.70;;;3.70;;
64875;SDS011;51369;49.862;9.908;2023-07-20T00:50:15;8.48;;;3.55;;
64875;SDS011;51369;49.862;9.908;2023-07-20T00:52:41;5.45;;;3.60;;
64875;SDS011;51369;49.862;9.908;2023-07-20T00:55:07;5.82;;;3.35;;
64875;SDS011;51369;49.862;9.908;2023-07-20T00:57:33;9.18;;;3.55;;
64875;SDS011;51369;49.862;9.908;2023-07-20T00:59:58;6.10;;;3.78;;
64875;SDS011;51369;49.862;9.908;2023-07-20T01:02:24;13.65;;;3.95;;
64875;SDS011;51369;49.862;9.908;2023-07-20T01:04:49;7.68;;;4.43;;
64875;SDS011;51369;49.862;9.908;2023-07-20T01:07:18;14.43;;;4.50;;
64875;SDS011;51369;49.862;9.908;2023-07-20T01:12:42;4.47;;;3.50;;
64875;SDS011;51369;49.862;9.908;2023-07-20T01:15:11;7.32;;;3.70;;
64875;SDS011;51369;49.862;9.908;2023-07-20T01:17:37;12.52;;;3.50;;
64875;SDS011;51369;49.862;9.908;2023-07-20T01:20:05;8.38;;;3.63;;
64875;SDS011;51369;49.862;9.908;2023-07-20T01:28:00;7.80;;;3.55;;
64875;SDS011;51369;49.862;9.908;2023-07-20T01:32:55;6.45;;;3.42;;
64875;SDS011;51369;49.862;9.908;2023-07-20T01:35:23;6.10;;;3.08;;
64875;SDS011;51369;49.862;9.908;2023-07-20T01:37:53;6.50;;;3.47;;
64875;SDS011;51369;49.862;9.908;2023-07-20T01:40:19;7.18;;;3.58;;
64875;SDS011;51369;49.862;9.908;2023-07-20T01:42:47;7.43;;;3.70;;
64875;SDS011;51369;49.862;9.908;2023-07-20T01:45:13;6.82;;;3.10;;
64875;SDS011;51369;49.862;9.908;2023-07-20T01:47:39;4.38;;;3.10;;
64875;SDS011;51369;49.862;9.908;2023-07-20T01:50:05;8.00;;;3.35;;
64875;SDS011;51369;49.862;9.908;2023-07-20T01:52:32;5.32;;;3.20;;
64875;SDS011;51369;49.862;9.908;2023-07-20T01:54:57;6.25;;;3.42;;
64875;SDS011;51369;49.862;9.908;2023-07-20T01:57:23;3.80;;;2.78;;
64875;SDS011;51369;49.862;9.908;2023-07-20T01:59:48;7.55;;;2.92;;
64875;SDS011;51369;49.862;9.908;2023-07-20T02:02:13;8.23;;;3.60;;
64875;SDS011;51369;49.862;9.908;2023-07-20T02:04:38;4.90;;;2.97;;
64875;SDS011;51369;49.862;9.908;2023-07-20T02:07:04;12.30;;;3.85;;
64875;SDS011;51369;49.862;9.908;2023-07-20T02:09:30;9.52;;;3.40;;
64875;SDS011;51369;49.862;9.908;2023-07-20T02:11:55;6.30;;;3.25;;
64875;SDS011;51369;49.862;9.908;2023-07-20T02:14:21;10.85;;;3.67;;
64875;SDS011;51369;49.862;9.908;2023-07-20T02:16:48;9.07;;;3.72;;
64875;SDS011;51369;49.862;9.908;2023-07-20T02:19:18;10.35;;;3.40;;
64875;SDS011;51369;49.862;9.908;2023-07-20T02:21:44;9.60;;;3.67;;
64875;SDS011;51369;49.862;9.908;2023-07-20T02:24:09;6.75;;;4.07;;
64875;SDS011;51369;49.862;9.908;2023-07-20T02:26:35;9.02;;;3.45;;
64875;SDS011;51369;49.862;9.908;2023-07-20T02:29:00;7.57;;;3.20;;
64875;SDS011;51369;49.862;9.908;2023-07-20T02:31:25;10.25;;;4.22;;
64875;SDS011;51369;49.862;9.908;2023-07-20T02:33:51;10.45;;;3.53;;
64875;SDS011;51369;49.862;9.908;2023-07-20T02:36:16;11.93;;;3.65;;
64875;SDS011;51369;49.862;9.908;2023-07-20T02:38:42;9.27;;;4.20;;
64875;SDS011;51369;49.862;9.908;2023-07-20T02:41:07;6.20;;;3.70;;
64875;SDS011;51369;49.862;9.908;2023-07-20T02:43:32;7.75;;;3.65;;
64875;SDS011;51369;49.862;9.908;2023-07-20T02:45:58;10.43;;;4.30;;
64875;SDS011;51369;49.862;9.908;2023-07-20T02:48:23;7.07;;;3.35;;
64875;SDS011;51369;49.862;9.908;2023-07-20T02:50:48;11.55;;;3.70;;
64875;SDS011;51369;49.862;9.908;2023-07-20T02:53:14;8.88;;;3.60;;
64875;SDS011;51369;49.862;9.908;2023-07-20T02:55:39;6.82;;;3.22;;
64875;SDS011;51369;49.862;9.908;2023-07-20T02:58:05;6.93;;;3.97;;
64875;SDS011;51369;49.862;9.908;2023-07-20T03:00:30;4.57;;;3.63;;
64875;SDS011;51369;49.862;9.908;2023-07-20T03:02:55;9.48;;;3.25;;
64875;SDS011;51369;49.862;9.908;2023-07-20T03:05:22;8.73;;;4.13;;
64875;SDS011;51369;49.862;9.908;2023-07-20T03:07:50;8.85;;;3.58;;
64875;SDS011;51369;49.862;9.908;2023-07-20T03:10:16;7.03;;;3.72;;
64875;SDS011;51369;49.862;9.908;2023-07-20T03:12:42;10.25;;;3.85;;
64875;SDS011;51369;49.862;9.908;2023-07-20T03:15:07;6.60;;;3.47;;
64875;SDS011;51369;49.862;9.908;2023-07-20T03:17:33;8.85;;;3.42;;
64875;SDS011;51369;49.862;9.908;2023-07-20T03:19:59;11.55;;;4.38;;
64875;SDS011;51369;49.862;9.908;2023-07-20T03:22:25;8.65;;;3.60;;
64875;SDS011;51369;49.862;9.908;2023-07-20T03:24:51;5.13;;;3.28;;
64875;SDS011;51369;49.862;9.908;2023-07-20T03:27:18;8.55;;;4.28;;
64875;SDS011;51369;49.862;9.908;2023-07-20T03:29:43;12.23;;;4.68;;
64875;SDS011;51369;49.862;9.908;2023-07-20T03:32:10;7.90;;;3.42;;
64875;SDS011;51369;49.862;9.908;2023-07-20T03:34:35;8.48;;;4.20;;
64875;SDS011;51369;49.862;9.908;2023-07-20T03:37:01;4.75;;;3.80;;
64875;SDS011;51369;49.862;9.908;2023-07-20T03:39:26;7.10;;;4.00;;
64875;SDS011;51369;49.862;9.908;2023-07-20T03:41:52;4.60;;;3.60;;
64875;SDS011;51369;49.862;9.908;2023-07-20T03:44:17;8.93;;;3.75;;
64875;SDS011;51369;49.862;9.908;2023-07-20T03:46:43;10.20;;;3.85;;
64875;SDS011;51369;49.862;9.908;2023-07-20T03:49:09;5.65;;;3.70;;
64875;SDS011;51369;49.862;9.908;2023-07-20T03:51:35;8.95;;;3.50;;
64875;SDS011;51369;49.862;9.908;2023-07-20T03:54:01;16.38;;;3.97;;
64875;SDS011;51369;49.862;9.908;2023-07-20T03:56:27;6.00;;;3.33;;
64875;SDS011;51369;49.862;9.908;2023-07-20T03:58:53;7.28;;;3.80;;
64875;SDS011;51369;49.862;9.908;2023-07-20T04:01:18;6.13;;;3.67;;
64875;SDS011;51369;49.862;9.908;2023-07-20T04:03:43;6.47;;;3.55;;
64875;SDS011;51369;49.862;9.908;2023-07-20T04:06:10;9.52;;;3.47;;
64875;SDS011;51369;49.862;9.908;2023-07-20T04:08:35;6.32;;;3.50;;
64875;SDS011;51369;49.862;9.908;2023-07-20T04:11:02;9.18;;;3.67;;
64875;SDS011;51369;49.862;9.908;2023-07-20T04:13:27;11.32;;;3.45;;
64875;SDS011;51369;49.862;9.908;2023-07-20T04:15:53;6.53;;;3.60;;
64875;SDS011;51369;49.862;9.908;2023-07-20T04:18:20;6.28;;;3.50;;
64875;SDS011;51369;49.862;9.908;2023-07-20T04:20:45;9.77;;;5.70;;
64875;SDS011;51369;49.862;9.908;2023-07-20T04:23:11;11.43;;;3.70;;
64875;SDS011;51369;49.862;9.908;2023-07-20T04:25:39;6.68;;;4.30;;
64875;SDS011;51369;49.862;9.908;2023-07-20T04:28:08;15.38;;;4.15;;
64875;SDS011;51369;49.862;9.908;2023-07-20T04:30:37;5.93;;;4.07;;
64875;SDS011;51369;49.862;9.908;2023-07-20T04:33:05;10.02;;;3.83;;
64875;SDS011;51369;49.862;9.908;2023-07-20T04:38:19;7.13;;;4.93;;
64875;SDS011;51369;49.862;9.908;2023-07-20T04:40:50;7.68;;;4.28;;
64875;SDS011;51369;49.862;9.908;2023-07-20T04:43:15;8.52;;;3.60;;
64875;SDS011;51369;49.862;9.908;2023-07-20T04:45:42;9.18;;;4.15;;
64875;SDS011;51369;49.862;9.908;2023-07-20T04:48:12;12.48;;;4.38;;
64875;SDS011;51369;49.862;9.908;2023-07-20T04:50:46;7.55;;;4.18;;
64875;SDS011;51369;49.862;9.908;2023-07-20T04:53:12;5.05;;;3.83;;
64875;SDS011;51369;49.862;9.908;2023-07-20T04:55:38;5.80;;;3.47;;
64875;SDS011;51369;49.862;9.908;2023-07-20T04:58:05;8.95;;;3.47;;
64875;SDS011;51369;49.862;9.908;2023-07-20T05:00:32;7.93;;;3.78;;
64875;SDS011;51369;49.862;9.908;2023-07-20T05:02:59;8.43;;;3.60;;
64875;SDS011;51369;49.862;9.908;2023-07-20T05:05:24;10.35;;;3.92;;
64875;SDS011;51369;49.862;9.908;2023-07-20T05:07:50;7.05;;;3.65;;
64875;SDS011;51369;49.862;9.908;2023-07-20T05:10:15;10.15;;;4.20;;
64875;SDS011;51369;49.862;9.908;2023-07-20T05:12:41;7.90;;;3.55;;
64875;SDS011;51369;49.862;9.908;2023-07-20T05:15:07;6.88;;;3.75;;
64875;SDS011;51369;49.862;9.908;2023-07-20T05:17:33;8.35;;;3.83;;
64875;SDS011;51369;49.862;9.908;2023-07-20T05:19:59;11.85;;;4.03;;
64875;SDS011;51369;49.862;9.908;2023-07-20T05:22:25;9.23;;;3.90;;
64875;SDS011;51369;49.862;9.908;2023-07-20T05:24:50;11.55;;;4.60;;
64875;SDS011;51369;49.862;9.908;2023-07-20T05:27:16;6.22;;;3.90;;
64875;SDS011;51369;49.862;9.908;2023-07-20T05:29:45;10.65;;;3.55;;
64875;SDS011;51369;49.862;9.908;2023-07-20T05:32:11;7.28;;;3.88;;
64875;SDS011;51369;49.862;9.908;2023-07-20T05:34:36;5.97;;;3.80;;
64875;SDS011;51369;49.862;9.908;2023-07-20T05:37:02;11.18;;;3.75;;
64875;SDS011;51369;49.862;9.908;2023-07-20T05:39:27;8.90;;;3.90;;
64875;SDS011;51369;49.862;9.908;2023-07-20T05:41:53;9.88;;;4.22;;
64875;SDS011;51369;49.862;9.908;2023-07-20T05:44:18;13.50;;;4.47;;
64875;SDS011;51369;49.862;9.908;2023-07-20T05:46:43;9.10;;;3.83;;
64875;SDS011;51369;49.862;9.908;2023-07-20T05:49:09;8.27;;;4.03;;
64875;SDS011;51369;49.862;9.908;2023-07-20T05:51:35;9.63;;;4.55;;
64875;SDS011;51369;49.862;9.908;2023-07-20T05:54:00;7.47;;;4.20;;
64875;SDS011;51369;49.862;9.908;2023-07-20T05:56:25;5.88;;;3.40;;
64875;SDS011;51369;49.862;9.908;2023-07-20T05:58:51;4.90;;;3.58;;
64875;SDS011;51369;49.862;9.908;2023-07-20T06:01:16;6.60;;;3.28;;
64875;SDS011;51369;49.862;9.908;2023-07-20T06:03:43;6.88;;;3.42;;
64875;SDS011;51369;49.862;9.908;2023-07-20T06:06:09;7.38;;;3.40;;
64875;SDS011;51369;49.862;9.908;2023-07-20T06:08:36;6.53;;;3.50;;
64875;SDS011;51369;49.862;9.908;2023-07-20T06:11:02;6.75;;;3.38;;
64875;SDS011;51369;49.862;9.908;2023-07-20T06:13:27;7.63;;;4.05;;
64875;SDS011;51369;49.862;9.908;2023-07-20T06:15:53;8.75;;;3.40;;
64875;SDS011;51369;49.862;9.908;2023-07-20T06:18:18;6.72;;;3.35;;
64875;SDS011;51369;49.862;9.908;2023-07-20T06:20:52;7.05;;;3.45;;
64875;SDS011;51369;49.862;9.908;2023-07-20T06:23:21;11.45;;;4.00;;
64875;SDS011;51369;49.862;9.908;2023-07-20T06:25:46;6.97;;;3.28;;
64875;SDS011;51369;49.862;9.908;2023-07-20T06:28:12;9.43;;;4.13;;
64875;SDS011;51369;49.862;9.908;2023-07-20T06:30:38;7.57;;;3.65;;
64875;SDS011;51369;49.862;9.908;2023-07-20T06:33:03;8.88;;;3.55;;
64875;SDS011;51369;49.862;9.908;2023-07-20T06:35:29;9.98;;;3.80;;
64875;SDS011;51369;49.862;9.908;2023-07-20T06:37:54;9.43;;;4.10;;
64875;SDS011;51369;49.862;9.908;2023-07-20T06:40:20;8.63;;;3.45;;
64875;SDS011;51369;49.862;9.908;2023-07-20T06:42:46;5.28;;;2.95;;
64875;SDS011;51369;49.862;9.908;2023-07-20T06:45:11;8.07;;;3.78;;
64875;SDS011;51369;49.862;9.908;2023-07-20T06:47:40;7.20;;;3.90;;
64875;SDS011;51369;49.862;9.908;2023-07-20T06:50:06;7.63;;;3.45;;
64875;SDS011;51369;49.862;9.908;2023-07-20T06:52:33;8.05;;;3.65;;
64875;SDS011;51369;49.862;9.908;2023-07-20T06:54:58;7.35;;;3.53;;
64875;SDS011;51369;49.862;9.908;2023-07-20T06:57:24;9.82;;;3.65;;
64875;SDS011;51369;49.862;9.908;2023-07-20T06:59:50;8.20;;;3.67;;
64875;SDS011;51369;49.862;9.908;2023-07-20T07:02:15;7.45;;;3.80;;
64875;SDS011;51369;49.862;9.908;2023-07-20T07:04:41;6.30;;;3.42;;
64875;SDS011;51369;49.862;9.908;2023-07-20T07:07:07;6.95;;;3.55;;
64875;SDS011;51369;49.862;9.908;2023-07-20T07:09:33;4.78;;;3.42;;
64875;SDS011;51369;49.862;9.908;2023-07-20T07:11:58;8.48;;;3.67;;
64875;SDS011;51369;49.862;9.908;2023-07-20T07:14:25;7.32;;;3.78;;
64875;SDS011;51369;49.862;9.908;2023-07-20T07:16:50;6.90;;;3.70;;
64875;SDS011;51369;49.862;9.908;2023-07-20T07:19:15;5.85;;;3.60;;
64875;SDS011;51369;49.862;9.908;2023-07-20T07:21:41;8.23;;;3.65;;
64875;SDS011;51369;49.862;9.908;2023-07-20T07:24:06;8.55;;;3.80;;
64875;SDS011;51369;49.862;9.908;2023-07-20T07:26:32;6.53;;;3.45;;
64875;SDS011;51369;49.862;9.908;2023-07-20T07:28:58;9.75;;;3.80;;
64875;SDS011;51369;49.862;9.908;2023-07-20T07:31:28;14.00;;;3.92;;
64875;SDS011;51369;49.862;9.908;2023-07-20T07:33:54;8.10;;;4.00;;
64875;SDS011;51369;49.862;9.908;2023-07-20T07:36:20;12.18;;;4.03;;
64875;SDS011;51369;49.862;9.908;2023-07-20T07:38:45;7.55;;;3.17;;
64875;SDS011;51369;49.862;9.908;2023-07-20T07:41:11;6.07;;;3.30;;
64875;SDS011;51369;49.862;9.908;2023-07-20T07:43:37;5.88;;;3.50;;
64875;SDS011;51369;49.862;9.908;2023-07-20T07:46:03;12.32;;;4.50;;
64875;SDS011;51369;49.862;9.908;2023-07-20T07:48:29;7.82;;;3.55;;
64875;SDS011;51369;49.862;9.908;2023-07-20T07:50:54;6.85;;;3.00;;
64875;SDS011;51369;49.862;9.908;2023-07-20T07:53:20;5.50;;;2.83;;
64875;SDS011;51369;49.862;9.908;2023-07-20T07:55:47;8.68;;;3.83;;
64875;SDS011;51369;49.862;9.908;2023-07-20T07:58:13;6.63;;;3.60;;
64875;SDS011;51369;49.862;9.908;2023-07-20T08:00:38;4.60;;;3.00;;
64875;SDS011;51369;49.862;9.908;2023-07-20T08:03:05;4.55;;;2.95;;
64875;SDS011;51369;49.862;9.908;2023-07-20T08:05:31;4.53;;;3.15;;
64875;SDS011;51369;49.862;9.908;2023-07-20T08:07:56;6.88;;;3.30;;
64875;SDS011;51369;49.862;9.908;2023-07-20T08:10:22;7.03;;;3.65;;
64875;SDS011;51369;49.862;9.908;2023-07-20T08:12:48;7.38;;;3.65;;
64875;SDS011;51369;49.862;9.908;2023-07-20T08:15:13;5.90;;;2.90;;
64875;SDS011;51369;49.862;9.908;2023-07-20T08:17:40;6.68;;;2.95;;
64875;SDS011;51369;49.862;9.908;2023-07-20T08:20:09;11.85;;;3.42;;
64875;SDS011;51369;49.862;9.908;2023-07-20T08:22:38;12.13;;;3.30;;
64875;SDS011;51369;49.862;9.908;2023-07-20T08:25:05;4.35;;;2.88;;
64875;SDS011;51369;49.862;9.908;2023-07-20T08:27:31;4.93;;;2.85;;
64875;SDS011;51369;49.862;9.908;2023-07-20T08:29:57;6.72;;;3.53;;
64875;SDS011;51369;49.862;9.908;2023-07-20T08:32:22;7.13;;;3.05;;
64875;SDS011;51369;49.862;9.908;2023-07-20T08:34:47;4.72;;;3.33;;
64875;SDS011;51369;49.862;9.908;2023-07-20T08:37:13;6.85;;;3.10;;
64875;SDS011;51369;49.862;9.908;2023-07-20T08:39:38;8.77;;;3.20;;
64875;SDS011;51369;49.862;9.908;2023-07-20T08:42:04;9.07;;;3.30;;
64875;SDS011;51369;49.862;9.908;2023-07-20T08:44:34;10.40;;;3.50;;
64875;SDS011;51369;49.862;9.908;2023-07-20T08:47:01;7.35;;;3.28;;
64875;SDS011;51369;49.862;9.908;2023-07-20T08:49:31;6.10;;;2.65;;
64875;SDS011;51369;49.862;9.908;2023-07-20T08:51:57;4.63;;;2.50;;
64875;SDS011;51369;49.862;9.908;2023-07-20T08:54:24;5.28;;;2.65;;
64875;SDS011;51369;49.862;9.908;2023-07-20T08:56:52;7.22;;;2.53;;
64875;SDS011;51369;49.862;9.908;2023-07-20T08:59:21;6.22;;;3.00;;
64875;SDS011;51369;49.862;9.908;2023-07-20T09:01:49;7.75;;;2.88;;
64875;SDS011;51369;49.862;9.908;2023-07-20T09:04:17;7.28;;;2.28;;
64875;SDS011;51369;49.862;9.908;2023-07-20T09:06:43;3.22;;;2.10;;
64875;SDS011;51369;49.862;9.908;2023-07-20T09:09:08;3.17;;;2.33;;
64875;SDS011;51369;49.862;9.908;2023-07-20T09:11:34;6.68;;;2.60;;
64875;SDS011;51369;49.862;9.908;2023-07-20T09:14:03;4.95;;;2.50;;
64875;SDS011;51369;49.862;9.908;2023-07-20T09:16:32;4.60;;;1.98;;
64875;SDS011;51369;49.862;9.908;2023-07-20T09:19:11;8.13;;;3.05;;
64875;SDS011;51369;49.862;9.908;2023-07-20T09:21:36;6.85;;;2.50;;
64875;SDS011;51369;49.862;9.908;2023-07-20T09:24:02;6.50;;;2.40;;
64875;SDS011;51369;49.862;9.908;2023-07-20T09:26:27;3.47;;;2.33;;
64875;SDS011;51369;49.862;9.908;2023-07-20T09:28:53;5.53;;;2.70;;
64875;SDS011;51369;49.862;9.908;2023-07-20T09:31:20;6.68;;;2.30;;
64875;SDS011;51369;49.862;9.908;2023-07-20T09:33:46;4.70;;;2.63;;
64875;SDS011;51369;49.862;9.908;2023-07-20T09:36:13;3.97;;;2.20;;
64875;SDS011;51369;49.862;9.908;2023-07-20T09:38:41;5.47;;;2.20;;
64875;SDS011;51369;49.862;9.908;2023-07-20T09:41:12;5.65;;;2.47;;
64875;SDS011;51369;49.862;9.908;2023-07-20T09:43:38;2.53;;;2.03;;
64875;SDS011;51369;49.862;9.908;2023-07-20T09:46:04;7.45;;;2.65;;
64875;SDS011;51369;49.862;9.908;2023-07-20T09:48:30;4.60;;;2.03;;
64875;SDS011;51369;49.862;9.908;2023-07-20T09:50:55;4.20;;;1.92;;
64875;SDS011;51369;49.862;9.908;2023-07-20T09:53:21;4.60;;;1.85;;
64875;SDS011;51369;49.862;9.908;2023-07-20T09:55:49;3.30;;;1.80;;
64875;SDS011;51369;49.862;9.908;2023-07-20T09:58:15;3.75;;;2.00;;
64875;SDS011;51369;49.862;9.908;2023-07-20T10:00:41;4.10;;;1.92;;
64875;SDS011;51369;49.862;9.908;2023-07-20T10:03:10;2.78;;;1.80;;
64875;SDS011;51369;49.862;9.908;2023-07-20T10:05:39;3.20;;;2.22;;
64875;SDS011;51369;49.862;9.908;2023-07-20T10:08:09;3.78;;;1.77;;
64875;SDS011;51369;49.862;9.908;2023-07-20T10:10:37;5.30;;;2.67;;
64875;SDS011;51369;49.862;9.908;2023-07-20T10:13:05;3.33;;;1.92;;
64875;SDS011;51369;49.862;9.908;2023-07-20T10:15:43;6.40;;;1.88;;
64875;SDS011;51369;49.862;9.908;2023-07-20T10:20:48;3.03;;;2.40;;
64875;SDS011;51369;49.862;9.908;2023-07-20T10:23:19;4.65;;;2.40;;
64875;SDS011;51369;49.862;9.908;2023-07-20T10:25:45;4.60;;;2.15;;
64875;SDS011;51369;49.862;9.908;2023-07-20T10:28:12;4.90;;;1.98;;
64875;SDS011;51369;49.862;9.908;2023-07-20T10:30:38;5.28;;;2.38;;
64875;SDS011;51369;49.862;9.908;2023-07-20T10:33:04;2.45;;;2.05;;
64875;SDS011;51369;49.862;9.908;2023-07-20T10:35:31;3.67;;;1.75;;
64875;SDS011;51369;49.862;9.908;2023-07-20T10:38:15;4.05;;;1.65;;
64875;SDS011;51369;49.862;9.908;2023-07-20T10:40:40;6.55;;;1.80;;
64875;SDS011;51369;49.862;9.908;2023-07-20T10:43:06;3.05;;;1.60;;
64875;SDS011;51369;49.862;9.908;2023-07-20T10:45:35;3.22;;;1.90;;
64875;SDS011;51369;49.862;9.908;2023-07-20T10:48:16;2.90;;;1.83;;
64875;SDS011;51369;49.862;9.908;2023-07-20T10:50:44;4.90;;;2.33;;
64875;SDS011;51369;49.862;9.908;2023-07-20T10:53:11;2.72;;;1.50;;
64875;SDS011;51369;49.862;9.908;2023-07-20T10:55:41;2.63;;;1.52;;
64875;SDS011;51369;49.862;9.908;2023-07-20T10:58:08;4.75;;;1.80;;
64875;SDS011;51369;49.862;9.908;2023-07-20T11:00:37;4.40;;;2.22;;
64875;SDS011;51369;49.862;9.908;2023-07-20T11:03:26;2.22;;;1.70;;
64875;SDS011;51369;49.862;9.908;2023-07-20T11:05:56;3.65;;;2.00;;
64875;SDS011;51369;49.862;9.908;2023-07-20T11:08:38;3.55;;;1.88;;
64875;SDS011;51369;49.862;9.908;2023-07-20T11:13:55;3.97;;;2.17;;
64875;SDS011;51369;49.862;9.908;2023-07-20T11:16:35;2.20;;;1.85;;
64875;SDS011;51369;49.862;9.908;2023-07-20T11:19:06;2.60;;;2.10;;
64875;SDS011;51369;49.862;9.908;2023-07-20T11:21:40;2.00;;;1.80;;
64875;SDS011;51369;49.862;9.908;2023-07-20T11:24:07;2.30;;;1.70;;
64875;SDS011;51369;49.862;9.908;2023-07-20T11:26:53;4.85;;;1.80;;
64875;SDS011;51369;49.862;9.908;2023-07-20T11:29:20;2.50;;;1.63;;
64875;SDS011;51369;49.862;9.908;2023-07-20T11:31:47;2.20;;;1.58;;
64875;SDS011;51369;49.862;9.908;2023-07-20T11:34:14;3.67;;;2.33;;
64875;SDS011;51369;49.862;9.908;2023-07-20T11:36:44;2.88;;;1.90;;
64875;SDS011;51369;49.862;9.908;2023-07-20T11:39:12;4.18;;;1.88;;
64875;SDS011;51369;49.862;9.908;2023-07-20T11:41:41;4.07;;;2.10;;
64875;SDS011;51369;49.862;9.908;2023-07-20T11:44:09;3.47;;;1.90;;
64875;SDS011;51369;49.862;9.908;2023-07-20T11:46:39;6.40;;;1.85;;
64875;SDS011;51369;49.862;9.908;2023-07-20T11:49:05;3.90;;;2.08;;
64875;SDS011;51369;49.862;9.908;2023-07-20T11:51:30;3.47;;;2.03;;
64875;SDS011;51369;49.862;9.908;2023-07-20T11:53:57;2.08;;;1.83;;
64875;SDS011;51369;49.862;9.908;2023-07-20T11:56:24;4.38;;;2.13;;
64875;SDS011;51369;49.862;9.908;2023-07-20T11:58:50;3.40;;;2.00;;
64875;SDS011;51369;49.862;9.908;2023-07-20T12:01:20;3.67;;;1.90;;
64875;SDS011;51369;49.862;9.908;2023-07-20T12:03:45;2.40;;;1.75;;
64875;SDS011;51369;49.862;9.908;2023-07-20T12:06:13;3.15;;;1.67;;
64875;SDS011;51369;49.862;9.908;2023-07-20T12:08:39;3.58;;;1.70;;
64875;SDS011;51369;49.862;9.908;2023-07-20T12:11:06;4.70;;;1.92;;
64875;SDS011;51369;49.862;9.908;2023-07-20T12:13:50;3.05;;;1.60;;
64875;SDS011;51369;49.862;9.908;2023-07-20T12:16:16;4.32;;;1.73;;
64875;SDS011;51369;49.862;9.908;2023-07-20T12:18:44;6.65;;;1.95;;
64875;SDS011;51369;49.862;9.908;2023-07-20T12:21:10;2.30;;;1.70;;
64875;SDS011;51369;49.862;9.908;2023-07-20T12:23:40;1.77;;;1.50;;
64875;SDS011;51369;49.862;9.908;2023-07-20T12:26:09;1.92;;;1.58;;
64875;SDS011;51369;49.862;9.908;2023-07-20T12:28:39;2.65;;;1.80;;
64875;SDS011;51369;49.862;9.908;2023-07-20T12:31:08;4.55;;;1.85;;
64875;SDS011;51369;49.862;9.908;2023-07-20T12:33:39;5.43;;;1.90;;
64875;SDS011;51369;49.862;9.908;2023-07-20T12:36:04;7.70;;;2.10;;
64875;SDS011;51369;49.862;9.908;2023-07-20T12:38:30;4.53;;;1.70;;
64875;SDS011;51369;49.862;9.908;2023-07-20T12:40:56;4.25;;;1.80;;
64875;SDS011;51369;49.862;9.908;2023-07-20T12:43:22;3.53;;;2.15;;
64875;SDS011;51369;49.862;9.908;2023-07-20T12:45:47;2.00;;;1.80;;
64875;SDS011;51369;49.862;9.908;2023-07-20T12:48:13;3.33;;;1.80;;
64875;SDS011;51369;49.862;9.908;2023-07-20T12:50:38;2.15;;;1.95;;
64875;SDS011;51369;49.862;9.908;2023-07-20T12:53:04;3.22;;;2.00;;
64875;SDS011;51369;49.862;9.908;2023-07-20T12:55:30;3.80;;;1.88;;
64875;SDS011;51369;49.862;9.908;2023-07-20T12:57:55;3.70;;;2.03;;
64875;SDS011;51369;49.862;9.908;2023-07-20T13:00:20;2.92;;;1.70;;
64875;SDS011;51369;49.862;9.908;2023-07-20T13:02:49;3.25;;;1.83;;
64875;SDS011;51369;49.862;9.908;2023-07-20T13:05:15;2.88;;;1.80;;
64875;SDS011;51369;49.862;9.908;2023-07-20T13:07:41;3.95;;;1.90;;
64875;SDS011;51369;49.862;9.908;2023-07-20T13:10:07;2.40;;;1.50;;
64875;SDS011;51369;49.862;9.908;2023-07-20T13:12:34;2.13;;;1.80;;
64875;SDS011;51369;49.862;9.908;2023-07-20T13:15:04;2.30;;;1.95;;
64875;SDS011;51369;49.862;9.908;2023-07-20T13:17:31;1.92;;;1.60;;
64875;SDS011;51369;49.862;9.908;2023-07-20T13:19:58;2.20;;;1.60;;
64875;SDS011;51369;49.862;9.908;2023-07-20T13:22:23;3.25;;;1.77;;
64875;SDS011;51369;49.862;9.908;2023-07-20T13:24:49;3.15;;;2.00;;
64875;SDS011;51369;49.862;9.908;2023-07-20T13:27:15;4.72;;;2.03;;
64875;SDS011;51369;49.862;9.908;2023-07-20T13:29:41;2.25;;;2.03;;
64875;SDS011;51369;49.862;9.908;2023-07-20T13:32:07;5.28;;;2.13;;
64875;SDS011;51369;49.862;9.908;2023-07-20T13:34:34;2.95;;;2.00;;
64875;SDS011;51369;49.862;9.908;2023-07-20T13:36:59;2.13;;;1.90;;
64875;SDS011;51369;49.862;9.908;2023-07-20T13:39:25;6.97;;;2.30;;
64875;SDS011;51369;49.862;9.908;2023-07-20T13:41:52;3.45;;;2.17;;
64875;SDS011;51369;49.862;9.908;2023-07-20T13:44:19;3.42;;;1.90;;
64875;SDS011;51369;49.862;9.908;2023-07-20T13:46:46;2.67;;;1.60;;
64875;SDS011;51369;49.862;9.908;2023-07-20T13:49:11;7.13;;;2.15;;
64875;SDS011;51369;49.862;9.908;2023-07-20T13:51:37;3.85;;;1.73;;
64875;SDS011;51369;49.862;9.908;2023-07-20T13:54:02;1.63;;;1.52;;
64875;SDS011;51369;49.862;9.908;2023-07-20T13:56:27;5.07;;;1.70;;
64875;SDS011;51369;49.862;9.908;2023-07-20T13:58:53;2.78;;;2.03;;
64875;SDS011;51369;49.862;9.908;2023-07-20T14:01:18;2.72;;;1.80;;
64875;SDS011;51369;49.862;9.908;2023-07-20T14:03:44;2.22;;;1.73;;
64875;SDS011;51369;49.862;9.908;2023-07-20T14:06:09;4.15;;;1.80;;
64875;SDS011;51369;49.862;9.908;2023-07-20T14:08:36;4.35;;;1.83;;
64875;SDS011;51369;49.862;9.908;2023-07-20T14:11:02;2.53;;;2.15;;
64875;SDS011;51369;49.862;9.908;2023-07-20T14:13:27;3.90;;;1.80;;
64875;SDS011;51369;49.862;9.908;2023-07-20T14:15:52;3.42;;;1.80;;
64875;SDS011;51369;49.862;9.908;2023-07-20T14:18:18;2.28;;;1.58;;
64875;SDS011;51369;49.862;9.908;2023-07-20T14:20:43;3.75;;;1.88;;
64875;SDS011;51369;49.862;9.908;2023-07-20T14:23:09;2.28;;;1.70;;
64875;SDS011;51369;49.862;9.908;2023-07-20T14:25:34;1.70;;;1.60;;
64875;SDS011;51369;49.862;9.908;2023-07-20T14:28:00;1.70;;;1.60;;
64875;SDS011;51369;49.862;9.908;2023-07-20T14:30:25;3.42;;;1.92;;
64875;SDS011;51369;49.862;9.908;2023-07-20T14:32:51;4.50;;;2.05;;
64875;SDS011;51369;49.862;9.908;2023-07-20T14:35:16;2.95;;;1.35;;
64875;SDS011;51369;49.862;9.908;2023-07-20T14:37:42;3.35;;;2.10;;
64875;SDS011;51369;49.862;9.908;2023-07-20T14:40:07;2.90;;;1.88;;
64875;SDS011;51369;49.862;9.908;2023-07-20T14:42:33;5.05;;;1.70;;
64875;SDS011;51369;49.862;9.908;2023-07-20T14:44:58;2.65;;;1.67;;
64875;SDS011;51369;49.862;9.908;2023-07-20T14:47:24;4.90;;;1.90;;
64875;SDS011;51369;49.862;9.908;2023-07-20T14:49:49;4.68;;;1.70;;
64875;SDS011;51369;49.862;9.908;2023-07-20T14:52:15;2.05;;;1.65;;
64875;SDS011;51369;49.862;9.908;2023-07-20T14:54:40;2.05;;;1.80;;
64875;SDS011;51369;49.862;9.908;2023-07-20T14:57:06;1.75;;;1.50;;
64875;SDS011;51369;49.862;9.908;2023-07-20T14:59:38;2.20;;;2.00;;
64875;SDS011;51369;49.862;9.908;2023-07-20T15:02:04;2.72;;;1.88;;